Time;durP1;ratioP1;P1;durP2;ratioP2;P2;SDS_P1;SDS_P2;PMS_P1;PMS_P2;Temp;Humidity;BMP_temperature;BMP_pressure;BME280_temperature;BME280_humidity;BME280_pressure;Samples;Min_cycle;Max_cycle;Signal;HPM_P1;HPM_P2
2023/05/21 00:01:08;;;;;;;7.05;4.50;;;;;;;9.79;100.00;102113.31;5033582;28;20025;-75
2023/05/21 00:03:34;;;;;;;7.18;4.93;;;;;;;9.76;100.00;102116.16;5032829;28;20029;-76
2023/05/21 00:06:02;;;;;;;5.40;4.10;;;;;;;9.74;100.00;102109.25;5034426;28;20474;-74
2023/05/21 00:08:27;;;;;;;6.90;5.00;;;;;;;9.70;100.00;102104.13;5034114;28;20466;-74
2023/05/21 00:10:53;;;;;;;7.78;5.65;;;;;;;9.68;100.00;102102.53;5033469;28;20120;-75
2023/05/21 00:13:18;;;;;;;9.85;5.07;;;;;;;9.66;100.00;102102.63;5033813;28;20045;-74
2023/05/21 00:15:44;;;;;;;9.38;5.10;;;;;;;9.65;100.00;102108.91;5033772;28;20057;-74
2023/05/21 00:18:09;;;;;;;6.72;4.65;;;;;;;9.63;100.00;102110.81;5034015;28;20029;-75
2023/05/21 00:20:35;;;;;;;9.23;4.65;;;;;;;9.62;100.00;102103.78;5034402;28;20061;-75
2023/05/21 00:23:04;;;;;;;7.85;4.70;;;;;;;9.60;100.00;102105.72;5034075;28;20038;-75
2023/05/21 00:25:30;;;;;;;8.02;5.38;;;;;;;9.58;100.00;102096.97;5033833;28;20416;-75
2023/05/21 00:27:55;;;;;;;8.15;4.72;;;;;;;9.55;100.00;102099.81;5033735;28;20086;-75
2023/05/21 00:30:21;;;;;;;6.82;4.35;;;;;;;9.55;100.00;102104.31;5034057;28;20045;-74
2023/05/21 00:32:46;;;;;;;7.18;4.60;;;;;;;9.52;100.00;102102.69;5033290;28;20033;-74
2023/05/21 00:35:12;;;;;;;7.95;5.53;;;;;;;9.55;100.00;102097.16;5034245;28;20037;-74
2023/05/21 00:37:37;;;;;;;7.47;4.65;;;;;;;9.52;100.00;102092.94;5033820;28;20060;-74
2023/05/21 00:40:05;;;;;;;7.13;4.63;;;;;;;9.53;100.00;102089.31;5032414;28;20069;-74
2023/05/21 00:42:31;;;;;;;7.35;5.00;;;;;;;9.56;100.00;102090.91;5033833;28;20029;-74
2023/05/21 00:44:56;;;;;;;6.95;4.82;;;;;;;9.56;100.00;102082.09;5033268;28;20112;-74
2023/05/21 00:47:22;;;;;;;7.00;5.20;;;;;;;9.56;100.00;102084.75;5033931;28;20041;-74
2023/05/21 00:49:51;;;;;;;9.02;5.43;;;;;;;9.53;100.00;102091.13;5032837;28;20032;-74
2023/05/21 00:52:20;;;;;;;6.90;4.75;;;;;;;9.52;100.00;102090.28;5033362;28;20033;-74
2023/05/21 00:54:48;;;;;;;9.45;5.32;;;;;;;9.52;100.00;102087.63;5033185;28;20128;-75
2023/05/21 00:57:13;;;;;;;5.80;4.18;;;;;;;9.50;100.00;102083.34;5033362;28;20029;-74
2023/05/21 00:59:39;;;;;;;8.32;4.55;;;;;;;9.48;100.00;102086.13;5033635;28;20037;-74
2023/05/21 01:02:05;;;;;;;9.50;5.15;;;;;;;9.46;100.00;102090.66;5032902;28;20048;-74
2023/05/21 01:04:31;;;;;;;9.40;5.28;;;;;;;9.45;100.00;102090.75;5033298;28;20033;-74
2023/05/21 01:06:57;;;;;;;9.77;5.60;;;;;;;9.44;100.00;102081.94;5032781;28;20045;-74
2023/05/21 01:09:24;;;;;;;8.02;5.47;;;;;;;9.45;100.00;102088.09;5033029;28;20064;-75
2023/05/21 01:11:51;;;;;;;12.52;5.40;;;;;;;9.44;100.00;102084.59;5032254;28;20030;-75
2023/05/21 01:14:18;;;;;;;9.20;5.47;;;;;;;9.42;100.00;102083.88;5032752;28;20335;-75
2023/05/21 01:16:47;;;;;;;8.80;5.40;;;;;;;9.41;100.00;102081.31;5032459;28;20049;-76
2023/05/21 01:19:16;;;;;;;8.75;5.97;;;;;;;9.39;100.00;102078.75;5032948;28;20464;-75
2023/05/21 01:21:45;;;;;;;13.52;5.10;;;;;;;9.38;100.00;102074.38;5032437;28;20033;-74
2023/05/21 01:24:10;;;;;;;10.20;5.93;;;;;;;9.37;100.00;102075.31;5032521;28;20055;-74
2023/05/21 01:26:38;;;;;;;8.40;5.65;;;;;;;9.35;100.00;102072.78;5032751;28;20470;-74
2023/05/21 01:29:05;;;;;;;7.75;5.10;;;;;;;9.34;100.00;102072.88;5032310;28;20041;-74
2023/05/21 01:31:47;;;;;;;8.85;6.20;;;;;;;9.34;100.00;102072.88;5032867;28;20041;-73
2023/05/21 01:34:15;;;;;;;9.05;6.35;;;;;;;9.35;100.00;102077.25;5032576;28;20397;-74
2023/05/21 01:36:52;;;;;;;11.73;6.55;;;;;;;9.41;100.00;102079.50;5032961;28;20116;-75
2023/05/21 01:39:34;;;;;;;11.45;6.22;;;;;;;9.50;100.00;102075.38;5033022;28;20095;-75
2023/05/21 01:42:04;;;;;;;13.18;6.47;;;;;;;9.58;100.00;102080.19;5032336;28;20117;-75
2023/05/21 01:44:31;;;;;;;10.68;6.30;;;;;;;9.65;100.00;102079.66;5032408;28;20470;-75
2023/05/21 01:46:58;;;;;;;14.80;6.28;;;;;;;9.72;100.00;102074.81;5032431;28;20441;-75
2023/05/21 01:49:23;;;;;;;13.57;6.70;;;;;;;9.80;100.00;102068.97;5032615;28;20065;-75
2023/05/21 01:51:49;;;;;;;11.68;6.22;;;;;;;9.87;100.00;102070.25;5032123;28;20064;-75
2023/05/21 01:54:15;;;;;;;13.88;5.82;;;;;;;9.95;100.00;102072.38;5032582;28;20079;-75
2023/05/21 01:56:40;;;;;;;10.98;6.10;;;;;;;10.00;100.00;102073.78;5032635;28;20064;-75
2023/05/21 01:59:06;;;;;;;10.52;6.07;;;;;;;10.07;100.00;102069.72;5032241;28;20083;-75
2023/05/21 02:01:31;;;;;;;7.80;5.63;;;;;;;10.15;100.00;102078.97;5031571;28;20093;-75
2023/05/21 02:03:57;;;;;;;13.48;5.70;;;;;;;10.20;100.00;102076.88;5032049;28;20057;-75
2023/05/21 02:06:22;;;;;;;9.55;6.07;;;;;;;10.27;100.00;102074.63;5032507;28;20038;-75
2023/05/21 02:08:48;;;;;;;10.15;5.95;;;;;;;10.33;100.00;102064.44;5032410;28;20061;-75
2023/05/21 02:11:13;;;;;;;7.32;5.45;;;;;;;10.39;100.00;102076.47;5032095;28;20103;-75
2023/05/21 02:13:39;;;;;;;10.95;5.78;;;;;;;10.45;100.00;102075.16;5032021;28;20179;-75
2023/05/21 02:16:08;;;;;;;12.45;6.15;;;;;;;10.50;100.00;102065.06;5031589;28;20461;-75
2023/05/21 02:18:35;;;;;;;8.45;5.30;;;;;;;10.58;100.00;102073.34;5032049;28;20044;-75
2023/05/21 02:21:00;;;;;;;11.38;5.57;;;;;;;10.62;100.00;102071.34;5031731;28;20037;-75
2023/05/21 02:23:25;;;;;;;12.85;5.68;;;;;;;10.66;100.00;102070.13;5032123;28;20103;-75
2023/05/21 02:25:51;;;;;;;7.93;5.50;;;;;;;10.68;100.00;102061.09;5031949;28;20038;-76
2023/05/21 02:28:16;;;;;;;9.65;5.90;;;;;;;10.71;100.00;102070.66;5031978;28;20029;-75
2023/05/21 02:30:42;;;;;;;10.68;5.60;;;;;;;10.73;100.00;102066.94;5032018;28;20029;-74
2023/05/21 02:33:07;;;;;;;8.98;5.80;;;;;;;10.78;100.00;102071.94;5029884;28;20037;-74
2023/05/21 02:35:33;;;;;;;8.98;6.07;;;;;;;10.80;100.00;102070.00;5031769;28;20091;-74
2023/05/21 02:38:01;;;;;;;9.93;5.72;;;;;;;10.83;100.00;102064.47;5031448;28;20120;-75
2023/05/21 02:40:27;;;;;;;12.93;5.78;;;;;;;10.87;100.00;102070.44;5031716;28;20062;-75
2023/05/21 02:42:52;;;;;;;10.45;5.53;;;;;;;10.90;100.00;102064.88;5030632;28;20045;-75
2023/05/21 02:45:17;;;;;;;8.95;5.63;;;;;;;10.92;100.00;102068.28;5031679;28;20034;-75
2023/05/21 02:47:43;;;;;;;6.85;5.38;;;;;;;10.96;100.00;102061.75;5032163;28;20037;-73
2023/05/21 02:50:08;;;;;;;7.18;4.70;;;;;;;10.99;100.00;102064.22;5031571;28;20187;-75
2023/05/21 02:52:34;;;;;;;14.13;5.30;;;;;;;11.01;100.00;102056.94;5032014;28;20481;-74
2023/05/21 02:54:59;;;;;;;9.95;5.63;;;;;;;11.04;100.00;102063.88;5031591;28;20044;-75
2023/05/21 02:57:25;;;;;;;10.32;5.97;;;;;;;11.07;100.00;102064.47;5032049;28;20032;-75
2023/05/21 02:59:50;;;;;;;7.50;5.05;;;;;;;11.09;100.00;102062.56;5047380;28;20460;-75
2023/05/21 03:02:15;;;;;;;7.35;5.43;;;;;;;11.11;100.00;102059.78;5030212;28;20037;-75
2023/05/21 03:04:44;;;;;;;10.45;5.60;;;;;;;11.13;100.00;102057.84;5031585;28;20025;-75
2023/05/21 03:07:13;;;;;;;10.20;5.55;;;;;;;11.17;100.00;102063.81;5031287;28;20033;-75
2023/05/21 03:09:43;;;;;;;11.93;5.53;;;;;;;11.19;100.00;102059.22;5031530;28;20357;-74
2023/05/21 03:12:09;;;;;;;8.30;5.32;;;;;;;11.22;100.00;102059.84;5031906;28;20046;-74
2023/05/21 03:14:35;;;;;;;8.10;5.40;;;;;;;11.23;100.00;102048.22;5050134;28;20111;-74
2023/05/21 03:17:04;;;;;;;11.25;5.32;;;;;;;11.25;100.00;102058.78;5034952;28;20057;-75
2023/05/21 03:19:34;;;;;;;7.53;5.22;;;;;;;11.26;100.00;102045.34;5035306;28;20029;-75
2023/05/21 03:22:01;;;;;;;6.70;5.38;;;;;;;11.29;100.00;102046.94;5035297;28;20029;-75
2023/05/21 03:24:29;;;;;;;7.82;5.10;;;;;;;11.31;100.00;102047.66;5035378;28;20033;-75
2023/05/21 03:26:54;;;;;;;8.55;5.25;;;;;;;11.35;100.00;102049.13;5035429;28;20107;-75
2023/05/21 03:29:20;;;;;;;10.32;5.30;;;;;;;11.37;100.00;102049.00;5034669;28;20458;-75
2023/05/21 03:31:46;;;;;;;9.07;5.72;;;;;;;11.38;100.00;102046.22;5035454;28;20038;-75
2023/05/21 03:34:11;;;;;;;9.27;5.75;;;;;;;11.42;100.00;102038.84;5034774;28;20048;-75
2023/05/21 03:36:36;;;;;;;11.13;6.40;;;;;;;11.44;100.00;102036.94;5035187;28;20112;-74
2023/05/21 03:39:03;;;;;;;7.13;5.57;;;;;;;11.47;100.00;102044.69;5034856;28;20030;-75
2023/05/21 03:41:28;;;;;;;7.32;5.30;;;;;;;11.51;100.00;102040.84;5035113;28;20044;-75
2023/05/21 03:43:53;;;;;;;6.32;5.50;;;;;;;11.53;100.00;102043.38;5035038;28;20034;-75
2023/05/21 03:46:19;;;;;;;9.13;5.88;;;;;;;11.55;100.00;102038.78;5034555;28;20033;-75
2023/05/21 03:48:44;;;;;;;9.80;6.05;;;;;;;11.58;100.00;102033.22;5034922;28;20517;-75
2023/05/21 03:51:10;;;;;;;14.80;6.13;;;;;;;11.60;100.00;102040.13;5034099;28;20032;-75
2023/05/21 03:53:35;;;;;;;9.68;5.88;;;;;;;11.62;100.00;102048.84;5034932;28;20511;-75
2023/05/21 03:56:01;;;;;;;10.00;6.00;;;;;;;11.65;100.00;102050.44;5034326;28;20509;-75
2023/05/21 03:58:26;;;;;;;8.18;5.10;;;;;;;11.66;100.00;102041.50;5033875;28;20030;-75
2023/05/21 04:00:52;;;;;;;9.52;5.75;;;;;;;11.69;100.00;102049.25;5034389;28;20045;-75
2023/05/21 04:03:17;;;;;;;8.07;5.63;;;;;;;11.71;100.00;102051.81;5034304;28;20112;-75
2023/05/21 04:05:43;;;;;;;9.60;5.72;;;;;;;11.72;100.00;102054.34;5034528;28;20390;-75
2023/05/21 04:08:09;;;;;;;9.43;5.72;;;;;;;11.75;100.00;102053.28;5033784;28;20036;-75
2023/05/21 04:10:34;;;;;;;12.75;5.70;;;;;;;11.77;100.00;102048.66;5034383;28;20136;-75
2023/05/21 04:13:00;;;;;;;9.13;5.80;;;;;;;11.77;100.00;102046.00;5034193;28;20037;-75
2023/05/21 04:15:26;;;;;;;11.27;5.78;;;;;;;11.79;100.00;102052.06;5034039;28;20053;-75
2023/05/21 04:17:52;;;;;;;8.25;5.38;;;;;;;11.80;100.00;102053.75;5049822;28;20119;-75
2023/05/21 04:20:17;;;;;;;10.63;5.90;;;;;;;11.82;100.00;102058.03;5034042;28;20080;-74
2023/05/21 04:22:43;;;;;;;10.10;5.70;;;;;;;11.83;100.00;102054.38;5034435;28;20041;-74
2023/05/21 04:25:08;;;;;;;10.13;6.05;;;;;;;11.85;100.00;102053.41;5032926;28;20110;-75
2023/05/21 04:27:35;;;;;;;8.02;5.47;;;;;;;11.87;100.00;102051.47;5034303;28;20029;-74
2023/05/21 04:30:03;;;;;;;10.68;5.72;;;;;;;11.87;100.00;102049.66;5034172;28;20037;-75
2023/05/21 04:32:29;;;;;;;9.30;5.75;;;;;;;11.89;100.00;102047.72;5033620;28;20107;-73
2023/05/21 04:34:55;;;;;;;9.43;5.80;;;;;;;11.92;100.00;102046.63;5034001;28;20167;-74
2023/05/21 04:37:23;;;;;;;7.28;5.55;;;;;;;11.94;100.00;102045.59;5033620;28;20060;-75
2023/05/21 04:39:48;;;;;;;7.72;5.32;;;;;;;11.96;100.00;102046.31;5034032;28;20064;-75
2023/05/21 04:42:14;;;;;;;9.43;5.22;;;;;;;12.01;100.00;102045.13;5033301;28;20470;-75
2023/05/21 04:44:43;;;;;;;9.43;5.60;;;;;;;12.04;100.00;102053.72;5033805;28;20022;-75
2023/05/21 04:47:09;;;;;;;9.07;5.50;;;;;;;12.06;100.00;102054.47;5033564;28;20064;-76
2023/05/21 04:49:34;;;;;;;10.15;5.30;;;;;;;12.09;100.00;102053.34;5033898;28;20052;-75
2023/05/21 04:52:01;;;;;;;8.30;5.88;;;;;;;12.13;100.00;102060.16;5033493;28;20482;-75
2023/05/21 04:54:27;;;;;;;9.15;6.13;;;;;;;12.15;100.00;102053.75;5033081;28;20462;-75
2023/05/21 04:56:53;;;;;;;9.00;5.82;;;;;;;12.16;100.00;102049.25;5033702;28;20532;-74
2023/05/21 04:59:19;;;;;;;14.23;5.70;;;;;;;12.21;100.00;102046.22;5033128;28;20040;-75
2023/05/21 05:01:44;;;;;;;8.98;5.70;;;;;;;12.26;100.00;102044.06;5032896;28;20124;-75
2023/05/21 05:04:10;;;;;;;9.85;6.07;;;;;;;12.29;100.00;102052.66;5033441;28;20462;-74
2023/05/21 05:06:35;;;;;;;12.52;5.90;;;;;;;12.36;100.00;102050.38;5033296;28;20422;-74
2023/05/21 05:09:01;;;;;;;10.77;5.38;;;;;;;12.42;100.00;102039.19;5033378;28;20034;-74
2023/05/21 05:11:26;;;;;;;7.82;5.70;;;;;;;12.51;100.00;102040.28;5032900;28;20030;-74
2023/05/21 05:13:51;;;;;;;6.07;5.15;;;;;;;12.58;100.00;102036.13;5033387;28;20034;-74
2023/05/21 05:16:23;;;;;;;8.23;5.32;;;;;;;12.72;100.00;102045.72;5033126;28;20061;-75
2023/05/21 05:18:51;;;;;;;6.47;4.60;;;;;;;12.86;100.00;102039.25;5033180;28;20048;-75
2023/05/21 05:21:17;;;;;;;7.70;5.55;;;;;;;12.99;100.00;102031.09;5032440;28;20452;-75
2023/05/21 05:23:43;;;;;;;9.88;4.90;;;;;;;13.14;100.00;102037.00;5032598;28;20033;-74
2023/05/21 05:26:09;;;;;;;7.55;5.10;;;;;;;13.26;100.00;102038.66;5032669;28;20477;-74
2023/05/21 05:28:35;;;;;;;10.07;5.38;;;;;;;13.34;100.00;102030.84;5032219;28;20033;-75
2023/05/21 05:31:00;;;;;;;7.32;5.45;;;;;;;13.39;100.00;102022.44;5032559;28;20029;-74
2023/05/21 05:33:25;;;;;;;7.97;4.80;;;;;;;13.45;100.00;102027.31;5032477;28;20033;-75
2023/05/21 05:35:51;;;;;;;6.72;5.25;;;;;;;13.53;100.00;102018.63;5032903;28;20095;-74
2023/05/21 05:38:16;;;;;;;9.52;5.13;;;;;;;13.61;100.00;102026.84;5032233;28;20040;-75
2023/05/21 05:40:42;;;;;;;11.50;5.03;;;;;;;13.65;100.00;102027.44;5032598;28;20037;-75
2023/05/21 05:43:07;;;;;;;6.35;4.45;;;;;;;13.67;100.00;102018.28;5032755;28;20462;-75
2023/05/21 05:45:32;;;;;;;7.38;4.80;;;;;;;13.74;100.00;102018.63;5032113;28;20034;-74
2023/05/21 05:47:58;;;;;;;9.50;5.10;;;;;;;13.78;100.00;102013.84;5032946;28;20091;-76
2023/05/21 05:50:23;;;;;;;7.20;4.75;;;;;;;13.84;100.00;102014.19;5032250;28;20037;-74
2023/05/21 05:52:50;;;;;;;10.95;5.55;;;;;;;13.88;100.00;102012.09;5032865;28;20030;-74
2023/05/21 05:55:15;;;;;;;8.35;4.60;;;;;;;13.91;100.00;102014.50;5032803;28;20037;-74
2023/05/21 05:57:40;;;;;;;7.78;4.95;;;;;;;13.91;100.00;102010.00;5032718;28;20033;-75
2023/05/21 06:00:09;;;;;;;6.80;4.70;;;;;;;13.93;100.00;102017.91;5048020;28;20439;-75
2023/05/21 06:02:35;;;;;;;10.18;5.22;;;;;;;13.94;100.00;102014.22;5032202;28;20040;-75
2023/05/21 06:05:00;;;;;;;7.32;4.63;;;;;;;13.98;100.00;102018.34;5032447;28;20378;-75
2023/05/21 06:07:25;;;;;;;6.82;5.03;;;;;;;14.01;100.00;102022.59;5032060;28;20131;-76
2023/05/21 06:09:51;;;;;;;9.65;5.35;;;;;;;14.02;100.00;102019.78;5032190;28;20035;-75
2023/05/21 06:12:16;;;;;;;7.13;4.78;;;;;;;14.06;100.00;102023.91;5032338;28;20037;-73
2023/05/21 06:14:41;;;;;;;11.05;5.03;;;;;;;14.08;100.00;102026.44;5031780;28;20087;-75
2023/05/21 06:17:07;;;;;;;6.93;4.75;;;;;;;14.12;100.00;102027.84;5032427;28;20029;-75
2023/05/21 06:19:32;;;;;;;6.55;4.50;;;;;;;14.18;100.00;102029.16;5031613;28;20025;-75
2023/05/21 06:21:58;;;;;;;6.50;4.38;;;;;;;14.26;100.00;102030.16;5032402;28;20030;-74
2023/05/21 06:24:23;;;;;;;5.60;4.97;;;;;;;14.33;100.00;102030.50;5031516;28;20155;-75
2023/05/21 06:26:48;;;;;;;9.20;4.93;;;;;;;14.35;100.00;102039.22;5032363;28;20029;-75
2023/05/21 06:29:13;;;;;;;6.57;4.90;;;;;;;14.37;100.00;102031.06;5032332;28;20041;-74
2023/05/21 06:31:39;;;;;;;8.10;5.20;;;;;;;14.42;100.00;102031.50;5031776;28;20030;-75
2023/05/21 06:34:04;;;;;;;8.27;5.13;;;;;;;14.45;100.00;102024.06;5032385;28;20033;-75
2023/05/21 06:36:31;;;;;;;6.82;5.10;;;;;;;14.50;100.00;102031.69;5047323;28;20041;-75
2023/05/21 06:38:56;;;;;;;7.88;5.10;;;;;;;14.52;100.00;102020.81;5032288;28;20037;-74
2023/05/21 06:41:22;;;;;;;5.97;5.18;;;;;;;14.58;100.00;102031.00;5031870;28;20037;-76
2023/05/21 06:43:47;;;;;;;7.65;5.28;;;;;;;14.65;100.00;102032.19;5030905;28;20104;-75
2023/05/21 06:46:13;;;;;;;6.68;5.32;;;;;;;14.72;100.00;102033.31;5032309;28;20485;-75
2023/05/21 06:48:39;;;;;;;7.95;5.13;;;;;;;14.81;100.00;102029.81;5034944;28;20479;-75
2023/05/21 06:51:04;;;;;;;10.02;5.65;;;;;;;14.93;100.00;102025.19;5036040;28;20032;-75
2023/05/21 06:53:29;;;;;;;7.07;5.07;;;;;;;15.07;100.00;102026.59;5035739;28;20029;-75
2023/05/21 06:55:55;;;;;;;7.93;5.45;;;;;;;15.19;100.00;102030.00;5034598;28;20103;-75
2023/05/21 06:58:21;;;;;;;9.77;5.45;;;;;;;15.27;100.00;102023.94;5035855;28;20076;-74
2023/05/21 07:00:47;;;;;;;6.72;4.53;;;;;;;15.38;100.00;102026.47;5035473;28;20072;-75
2023/05/21 07:03:12;;;;;;;5.72;5.00;;;;;;;15.56;100.00;102029.28;5036038;28;20026;-75
2023/05/21 07:05:37;;;;;;;5.93;4.80;;;;;;;15.70;100.00;102033.34;5035462;28;20052;-75
2023/05/21 07:08:03;;;;;;;10.00;5.55;;;;;;;15.82;100.00;102043.00;5034578;28;20472;-75
2023/05/21 07:10:28;;;;;;;7.88;5.70;;;;;;;15.98;100.00;102041.53;5035245;28;20040;-75
2023/05/21 07:12:53;;;;;;;10.85;4.97;;;;;;;16.07;100.00;102050.56;5035482;28;20056;-75
2023/05/21 07:15:19;;;;;;;9.45;5.07;;;;;;;16.12;100.00;102048.25;5034118;28;20092;-75
2023/05/21 07:17:44;;;;;;;10.32;5.50;;;;;;;16.20;100.00;102043.03;5034990;28;20033;-75
2023/05/21 07:20:11;;;;;;;6.95;5.15;;;;;;;16.29;100.00;102041.31;5034369;28;20545;-75
2023/05/21 07:22:41;;;;;;;7.13;5.70;;;;;;;16.42;100.00;102036.44;5035198;28;20034;-75
2023/05/21 07:25:07;;;;;;;6.75;4.93;;;;;;;16.60;100.00;102038.31;5035453;28;20029;-75
2023/05/21 07:27:33;;;;;;;7.82;5.10;;;;;;;16.67;100.00;102042.09;5035062;28;20421;-75
2023/05/21 07:29:58;;;;;;;9.18;5.38;;;;;;;16.56;100.00;102043.97;5035503;28;20041;-75
2023/05/21 07:32:25;;;;;;;6.50;5.00;;;;;;;16.65;100.00;102044.94;5035525;28;20116;-75
2023/05/21 07:34:50;;;;;;;11.30;5.07;;;;;;;16.74;100.00;102038.66;5034965;28;20057;-75
2023/05/21 07:37:16;;;;;;;19.05;5.28;;;;;;;16.75;100.00;102045.72;5035409;28;20025;-75
2023/05/21 07:39:41;;;;;;;9.18;5.28;;;;;;;16.71;100.00;102040.81;5034618;28;20037;-75
2023/05/21 07:42:07;;;;;;;9.13;5.25;;;;;;;16.80;100.00;102042.59;5034978;28;20375;-75
2023/05/21 07:44:32;;;;;;;10.07;5.13;;;;;;;16.66;100.00;102041.25;5034661;28;20029;-75
2023/05/21 07:46:57;;;;;;;6.97;4.90;;;;;;;16.62;100.00;102039.03;5050608;28;20036;-75
2023/05/21 07:49:23;;;;;;;7.18;4.75;;;;;;;16.55;100.00;102036.06;5035131;28;20034;-74
2023/05/21 07:51:49;;;;;;;9.35;4.40;;;;;;;16.57;100.00;102031.41;5033077;28;20036;-75
2023/05/21 07:54:14;;;;;;;6.95;4.93;;;;;;;16.65;100.00;102030.66;5050035;28;20477;-75
2023/05/21 07:56:40;;;;;;;7.20;5.07;;;;;;;16.56;100.00;102033.22;5034346;28;20037;-73
2023/05/21 07:59:05;;;;;;;11.43;5.32;;;;;;;16.49;100.00;102034.81;5033549;28;20474;-75
2023/05/21 08:01:31;;;;;;;6.40;5.03;;;;;;;16.41;100.00;102034.72;5034715;28;20124;-75
2023/05/21 08:03:59;;;;;;;10.85;5.35;;;;;;;16.45;100.00;102038.81;5034535;28;20120;-75
2023/05/21 08:06:25;;;;;;;8.05;5.00;;;;;;;16.45;100.00;102035.28;5034577;28;20037;-75
2023/05/21 08:08:51;;;;;;;12.88;4.97;;;;;;;16.42;100.00;102044.50;5034200;28;20038;-75
2023/05/21 08:11:16;;;;;;;10.43;4.72;;;;;;;16.52;100.00;102033.69;5034634;28;20040;-75
2023/05/21 08:13:41;;;;;;;8.30;5.18;;;;;;;16.57;100.00;102026.03;5034128;28;20533;-76
2023/05/21 08:16:07;;;;;;;5.55;4.70;;;;;;;16.70;100.00;102031.88;5033995;28;20609;-75
2023/05/21 08:18:32;;;;;;;9.15;4.93;;;;;;;16.87;100.00;102035.63;5034464;28;20025;-75
2023/05/21 08:20:59;;;;;;;6.68;4.82;;;;;;;17.05;100.00;102034.81;5033971;28;20029;-75
2023/05/21 08:23:25;;;;;;;9.05;5.20;;;;;;;17.17;100.00;102035.44;5034198;28;20059;-76
2023/05/21 08:25:52;;;;;;;11.38;5.45;;;;;;;17.17;100.00;102030.06;5033905;28;20025;-76
2023/05/21 08:28:17;;;;;;;6.65;5.13;;;;;;;17.08;100.00;102034.50;5034171;28;20040;-76
2023/05/21 08:30:43;;;;;;;8.90;5.35;;;;;;;16.96;100.00;102033.03;5049427;28;20041;-76
2023/05/21 08:33:08;;;;;;;8.15;5.30;;;;;;;16.91;100.00;102039.72;5034157;28;20029;-75
2023/05/21 08:35:34;;;;;;;10.82;5.22;;;;;;;16.89;100.00;102032.81;5034198;28;20037;-75
2023/05/21 08:37:59;;;;;;;6.50;5.00;;;;;;;16.98;100.00;102036.44;5033726;28;20029;-75
2023/05/21 08:40:25;;;;;;;7.97;4.90;;;;;;;16.98;100.00;102037.25;5034051;28;20081;-74
2023/05/21 08:42:50;;;;;;;7.22;4.80;;;;;;;17.02;100.00;102037.81;5033283;28;20033;-75
2023/05/21 08:45:21;;;;;;;7.38;4.95;;;;;;;16.98;100.00;102031.88;5033898;28;20417;-75
2023/05/21 08:47:47;;;;;;;8.63;5.55;;;;;;;16.87;100.00;102037.50;5033433;28;20030;-75
2023/05/21 08:50:15;;;;;;;7.65;4.90;;;;;;;16.88;100.00;102026.59;5032275;28;20116;-74
2023/05/21 08:52:40;;;;;;;9.82;5.10;;;;;;;16.96;100.00;102035.72;5033432;28;20079;-76
2023/05/21 08:55:07;;;;;;;5.80;4.18;;;;;;;17.15;100.00;102023.97;5033566;28;20026;-74
2023/05/21 08:57:33;;;;;;;5.97;4.72;;;;;;;17.40;100.00;102028.56;5033764;28;20481;-75
2023/05/21 09:00:00;;;;;;;9.60;4.82;;;;;;;17.61;100.00;102027.38;5032922;28;20040;-75
2023/05/21 09:02:26;;;;;;;8.35;4.95;;;;;;;17.90;100.00;102023.56;5033476;28;20049;-75
2023/05/21 09:04:56;;;;;;;13.00;5.00;;;;;;;17.89;100.00;102019.19;5033153;28;20035;-75
2023/05/21 09:07:24;;;;;;;10.60;4.82;;;;;;;18.03;100.00;102015.91;5033476;28;20022;-75
2023/05/21 09:09:56;;;;;;;16.13;5.10;;;;;;;18.22;100.00;102016.69;5032434;28;20034;-75
2023/05/21 09:12:26;;;;;;;10.23;4.78;;;;;;;18.52;100.00;102019.84;5033420;28;20025;-75
2023/05/21 09:14:52;;;;;;;7.82;4.80;;;;;;;18.78;100.00;102015.22;5032857;28;20088;-75
2023/05/21 09:17:19;;;;;;;10.60;4.47;;;;;;;18.89;100.00;102015.97;5033430;28;20065;-75
2023/05/21 09:20:23;;;;;;;7.25;4.93;;;;;;;19.12;100.00;102011.63;5032476;28;20472;-76
2023/05/21 09:22:49;;;;;;;8.02;4.43;;;;;;;19.28;100.00;102009.94;5030583;28;20108;-76
2023/05/21 09:25:22;;;;;;;7.63;4.70;;;;;;;19.73;100.00;102003.13;5032586;28;20048;-75
2023/05/21 09:27:48;;;;;;;8.98;4.50;;;;;;;19.92;100.00;101999.25;5033376;28;20053;-75
2023/05/21 09:30:16;;;;;;;8.85;4.75;;;;;;;20.18;100.00;102001.72;5033243;28;20092;-75
2023/05/21 09:32:43;;;;;;;10.30;4.50;;;;;;;20.59;100.00;102004.22;5033030;28;20044;-75
2023/05/21 09:35:13;;;;;;;7.40;4.70;;;;;;;20.88;100.00;101991.88;5033243;28;20033;-76
2023/05/21 09:37:43;;;;;;;9.02;4.53;;;;;;;21.16;100.00;101996.78;5034138;28;20047;-75
2023/05/21 09:40:16;;;;;;;11.57;4.93;;;;;;;21.39;100.00;101998.59;5033248;28;20037;-75
2023/05/21 09:42:48;;;;;;;7.25;4.63;;;;;;;21.34;96.55;101992.91;5033195;28;20080;-75
2023/05/21 09:45:24;;;;;;;5.82;4.10;;;;;;;21.35;100.00;101997.28;5033173;28;20021;-76
2023/05/21 09:47:52;;;;;;;7.85;4.47;;;;;;;21.86;90.57;101994.78;5032448;28;20033;-77
2023/05/21 09:50:26;;;;;;;7.90;4.70;;;;;;;22.24;75.39;101988.44;5032818;28;20084;-75
2023/05/21 09:52:52;;;;;;;5.45;4.18;;;;;;;22.71;83.59;101989.84;5032332;28;20036;-76
2023/05/21 09:55:21;;;;;;;5.15;4.10;;;;;;;23.16;68.95;101993.25;5032776;28;20418;-75
2023/05/21 09:57:48;;;;;;;6.57;4.07;;;;;;;23.61;66.92;101994.88;5032259;28;20029;-76
2023/05/21 10:00:20;;;;;;;6.53;4.57;;;;;;;23.73;65.71;101993.28;5032707;28;20040;-75
2023/05/21 10:02:47;;;;;;;12.77;4.55;;;;;;;23.73;67.98;101996.81;5032570;28;20036;-76
2023/05/21 10:05:16;;;;;;;8.25;4.13;;;;;;;23.57;64.55;102000.69;5032446;28;20029;-76
2023/05/21 10:07:50;;;;;;;5.70;3.72;;;;;;;23.18;65.70;102001.19;5047751;28;20451;-76
2023/05/21 10:10:17;;;;;;;6.88;3.63;;;;;;;23.14;68.44;102000.75;5032408;28;20031;-76
2023/05/21 10:12:46;;;;;;;6.85;4.07;;;;;;;23.17;66.36;101986.78;5032405;28;20096;-75
2023/05/21 10:15:16;;;;;;;7.25;3.65;;;;;;;23.09;68.13;101984.16;5031954;28;20054;-76
2023/05/21 10:17:45;;;;;;;5.60;4.25;;;;;;;23.17;72.38;101984.09;5032537;28;20026;-75
2023/05/21 10:20:11;;;;;;;7.03;3.90;;;;;;;23.27;69.78;101978.31;5032419;28;20029;-75
2023/05/21 10:22:38;;;;;;;5.03;3.92;;;;;;;23.51;65.67;101974.34;5032516;28;20466;-75
2023/05/21 10:25:05;;;;;;;9.13;4.38;;;;;;;23.53;69.97;101976.84;5031976;28;20061;-77
2023/05/21 10:27:32;;;;;;;6.45;4.00;;;;;;;23.17;70.03;101975.94;5032181;28;20033;-76
2023/05/21 10:29:59;;;;;;;7.15;4.57;;;;;;;23.19;69.25;101967.59;5030691;28;20059;-76
2023/05/21 10:32:26;;;;;;;7.45;4.53;;;;;;;23.39;67.95;101959.59;5032159;28;20037;-76
2023/05/21 10:34:56;;;;;;;6.93;4.25;;;;;;;23.30;72.40;101961.63;5031958;28;20061;-77
2023/05/21 10:37:27;;;;;;;5.85;3.80;;;;;;;23.47;65.98;101958.59;5031902;28;20413;-75
2023/05/21 10:39:56;;;;;;;7.20;4.20;;;;;;;23.38;71.26;101966.09;5031689;28;20039;-76
2023/05/21 10:42:30;;;;;;;6.70;3.67;;;;;;;23.29;68.89;101964.53;5032486;28;20026;-75
2023/05/21 10:45:18;;;;;;;6.22;4.15;;;;;;;23.42;66.56;101960.06;5031579;28;20022;-76
2023/05/21 10:47:59;;;;;;;5.60;4.18;;;;;;;23.90;64.70;101966.66;5032285;28;20355;-76
2023/05/21 10:50:33;;;;;;;8.35;3.85;;;;;;;24.22;61.87;101965.13;5032055;28;20060;-76
2023/05/21 10:53:15;;;;;;;8.02;3.83;;;;;;;24.15;60.68;101955.28;5031447;28;20088;-75
2023/05/21 10:55:59;;;;;;;10.77;4.15;;;;;;;23.41;63.38;101960.25;5031939;28;20035;-76
2023/05/21 10:59:03;;;;;;;8.38;3.63;;;;;;;23.08;67.29;101958.09;5032006;28;20113;-76
2023/05/21 11:01:32;;;;;;;9.43;3.75;;;;;;;23.72;66.77;101959.00;5030449;28;20037;-75
2023/05/21 11:03:58;;;;;;;9.13;3.78;;;;;;;24.53;61.16;101957.50;5031270;28;20033;-76
2023/05/21 11:06:25;;;;;;;7.95;3.70;;;;;;;25.30;59.16;101953.47;5030646;28;20393;-76
2023/05/21 11:08:52;;;;;;;9.75;3.90;;;;;;;25.81;56.96;101941.00;5031681;28;20041;-76
2023/05/21 11:11:44;;;;;;;13.52;3.72;;;;;;;25.92;56.10;101950.41;5031666;28;20069;-75
2023/05/21 11:14:35;;;;;;;11.60;3.72;;;;;;;25.94;59.71;101945.56;5031491;28;20112;-76
2023/05/21 11:17:00;;;;;;;9.02;4.05;;;;;;;26.30;53.83;101937.91;5031133;28;20117;-76